Estación Meteorológica Peña el Pijo (Robertgarden) [ 02/03/23 04:17:51 CET ]

Fecha Hora Presion(HPa) Temp (°C) Humedad % Rocio (°C) Viento ( m/s) Direccion Lluvia 1Hora(mm) Lluvia 24H(mm) LLuvia Total(mm)
2010-May-20 01:01:12 1016.200 10.6 69 5.2         113.96
2010-May-20 02:01:13 1016.700 9.5 74 5.1         113.96
2010-May-20 03:04:21 1016.400 8.8 76 4.8         113.96
2010-May-20 04:01:17 1016.400 7.9 78 4.3         113.96
2010-May-20 05:01:12 1016.500 6.8 81 3.8         113.96
2010-May-20 06:01:12 1016.500 6.1 83 3.4         113.96
2010-May-20 07:01:11 1016.700 5.4 85 3.0         113.96
2010-May-20 08:01:12 1017.500 7.2 85 4.8         113.96
2010-May-20 09:01:19 1017.400 12.4 71 7.3         113.96
2010-May-20 10:01:17 1017.300 16.4 57 7.8         113.96
2010-May-20 11:01:17 1017.100 18.3 47 7.0         113.96
2010-May-20 12:01:14 1017.000 20.4 41 6.7         113.96
2010-May-20 13:01:17 1016.900 20.6 38 5.7 2.5 ENE     113.96
2010-May-20 14:01:13 1016.200 22.3 36 6.4         113.96
2010-May-20 15:01:17 1015.900 22.4 38 7.3         113.96
2010-May-20 16:01:14 1015.500 25.2 32 7.3         113.96
2010-May-20 17:01:12 1015.100 24.8 32 7.0         113.96
2010-May-20 18:01:13 1014.800 24.3 32 6.5         113.96
2010-May-20 19:01:13 1014.600 22.8 34 6.0         113.96
2010-May-20 20:01:14 1014.900 20.7 36 5.0         113.96
2010-May-20 21:01:18 1015.500 17.8 41 4.3         113.96
2010-May-20 22:01:14 1016.100 15.0 52 5.2         113.96
2010-May-20 23:01:13 1016.800 13.3 57 4.9         113.96

Temperatura Máxima:25°    Temperatura Mínima:
Presión Máxima:1017.500 Hpa    Presión Mínima:1014.600 Hpa


Volver